sensor_id;sensor_type;location;lat;lon;timestamp;noise_LAeq;noise_LA_min;noise_LA_max;noise_LA01;noise_LA95
38366;Laerm;943;51.568;6.998;2023-12-04T00:00:17;37.71;34.79;42.25;;
38366;Laerm;943;51.568;6.998;2023-12-04T00:02:47;38.24;35.02;46.44;;
38366;Laerm;943;51.568;6.998;2023-12-04T00:05:16;42.30;35.35;57.03;;
38366;Laerm;943;51.568;6.998;2023-12-04T00:07:46;38.18;34.82;44.41;;
38366;Laerm;943;51.568;6.998;2023-12-04T00:10:16;37.51;34.63;43.68;;
38366;Laerm;943;51.568;6.998;2023-12-04T00:12:47;38.50;34.86;46.51;;
38366;Laerm;943;51.568;6.998;2023-12-04T00:15:20;38.94;35.74;44.71;;
38366;Laerm;943;51.568;6.998;2023-12-04T00:17:51;38.78;35.46;45.01;;
38366;Laerm;943;51.568;6.998;2023-12-04T00:20:20;38.44;35.42;44.60;;
38366;Laerm;943;51.568;6.998;2023-12-04T00:22:50;37.89;35.24;43.63;;
38366;Laerm;943;51.568;6.998;2023-12-04T00:25:20;38.24;35.00;44.92;;
38366;Laerm;943;51.568;6.998;2023-12-04T00:27:50;36.88;34.80;46.96;;
38366;Laerm;943;51.568;6.998;2023-12-04T00:30:20;36.77;34.47;40.64;;
38366;Laerm;943;51.568;6.998;2023-12-04T00:32:49;37.20;34.62;41.79;;
38366;Laerm;943;51.568;6.998;2023-12-04T00:35:19;37.23;34.13;48.47;;
38366;Laerm;943;51.568;6.998;2023-12-04T00:37:49;37.33;33.44;44.47;;
38366;Laerm;943;51.568;6.998;2023-12-04T00:40:20;37.08;33.71;42.50;;
38366;Laerm;943;51.568;6.998;2023-12-04T00:42:49;42.69;34.25;60.19;;
38366;Laerm;943;51.568;6.998;2023-12-04T00:45:18;36.92;33.66;41.18;;
38366;Laerm;943;51.568;6.998;2023-12-04T00:47:48;37.28;34.20;41.72;;
38366;Laerm;943;51.568;6.998;2023-12-04T00:50:19;36.98;33.28;45.40;;
38366;Laerm;943;51.568;6.998;2023-12-04T00:52:52;41.19;34.01;57.04;;
38366;Laerm;943;51.568;6.998;2023-12-04T00:55:22;36.37;32.99;41.43;;
38366;Laerm;943;51.568;6.998;2023-12-04T00:57:51;37.38;34.34;41.68;;
38366;Laerm;943;51.568;6.998;2023-12-04T01:00:21;39.49;33.12;58.30;;
38366;Laerm;943;51.568;6.998;2023-12-04T01:02:52;36.25;33.47;42.04;;
38366;Laerm;943;51.568;6.998;2023-12-04T01:05:21;36.56;33.50;42.32;;
38366;Laerm;943;51.568;6.998;2023-12-04T01:07:53;36.70;33.69;40.68;;
38366;Laerm;943;51.568;6.998;2023-12-04T01:10:23;36.54;33.37;44.01;;
38366;Laerm;943;51.568;6.998;2023-12-04T01:12:53;36.47;33.43;42.24;;
38366;Laerm;943;51.568;6.998;2023-12-04T01:15:24;36.38;33.71;41.31;;
38366;Laerm;943;51.568;6.998;2023-12-04T01:17:55;36.92;33.59;41.16;;
38366;Laerm;943;51.568;6.998;2023-12-04T01:20:25;38.41;35.31;46.59;;
38366;Laerm;943;51.568;6.998;2023-12-04T01:22:55;37.94;34.54;44.39;;
38366;Laerm;943;51.568;6.998;2023-12-04T01:25:25;36.79;34.14;41.34;;
38366;Laerm;943;51.568;6.998;2023-12-04T01:27:55;36.73;33.89;41.34;;
38366;Laerm;943;51.568;6.998;2023-12-04T01:30:25;37.10;34.12;41.47;;
38366;Laerm;943;51.568;6.998;2023-12-04T01:32:54;36.32;33.56;41.26;;
38366;Laerm;943;51.568;6.998;2023-12-04T01:35:24;35.97;33.73;39.15;;
38366;Laerm;943;51.568;6.998;2023-12-04T01:37:54;36.39;34.00;42.45;;
38366;Laerm;943;51.568;6.998;2023-12-04T01:40:24;36.87;34.05;46.31;;
38366;Laerm;943;51.568;6.998;2023-12-04T01:42:54;37.53;34.12;43.09;;
38366;Laerm;943;51.568;6.998;2023-12-04T01:45:27;37.92;34.08;42.22;;
38366;Laerm;943;51.568;6.998;2023-12-04T01:47:58;37.34;33.67;42.59;;
38366;Laerm;943;51.568;6.998;2023-12-04T01:50:29;37.49;33.86;46.95;;
38366;Laerm;943;51.568;6.998;2023-12-04T01:52:59;36.65;34.02;48.98;;
38366;Laerm;943;51.568;6.998;2023-12-04T01:55:30;36.58;34.07;41.42;;
38366;Laerm;943;51.568;6.998;2023-12-04T01:58:06;36.97;34.01;43.26;;
38366;Laerm;943;51.568;6.998;2023-12-04T02:00:36;38.27;35.19;43.66;;
38366;Laerm;943;51.568;6.998;2023-12-04T02:03:08;38.32;34.99;42.87;;
38366;Laerm;943;51.568;6.998;2023-12-04T02:05:38;37.91;35.47;42.26;;
38366;Laerm;943;51.568;6.998;2023-12-04T02:08:09;38.01;34.81;41.05;;
38366;Laerm;943;51.568;6.998;2023-12-04T02:10:40;38.25;35.92;41.72;;
38366;Laerm;943;51.568;6.998;2023-12-04T02:13:11;39.12;36.28;44.52;;
38366;Laerm;943;51.568;6.998;2023-12-04T02:15:41;38.15;35.02;42.58;;
38366;Laerm;943;51.568;6.998;2023-12-04T02:18:12;38.18;35.57;41.72;;
38366;Laerm;943;51.568;6.998;2023-12-04T02:20:44;37.68;34.75;48.71;;
38366;Laerm;943;51.568;6.998;2023-12-04T02:23:14;37.41;34.57;41.14;;
38366;Laerm;943;51.568;6.998;2023-12-04T02:25:44;37.68;34.30;44.17;;
38366;Laerm;943;51.568;6.998;2023-12-04T02:28:17;38.29;34.69;45.01;;
38366;Laerm;943;51.568;6.998;2023-12-04T02:30:49;37.56;34.97;41.52;;
38366;Laerm;943;51.568;6.998;2023-12-04T02:33:24;37.87;35.11;45.02;;
38366;Laerm;943;51.568;6.998;2023-12-04T02:35:57;38.16;35.51;41.17;;
38366;Laerm;943;51.568;6.998;2023-12-04T02:38:29;38.07;34.31;47.64;;
38366;Laerm;943;51.568;6.998;2023-12-04T02:40:59;37.72;34.90;41.62;;
38366;Laerm;943;51.568;6.998;2023-12-04T02:43:29;38.41;35.81;41.53;;
38366;Laerm;943;51.568;6.998;2023-12-04T02:45:59;38.16;34.98;42.81;;
38366;Laerm;943;51.568;6.998;2023-12-04T02:48:28;38.36;34.95;43.12;;
38366;Laerm;943;51.568;6.998;2023-12-04T02:50:58;37.88;34.18;43.41;;
38366;Laerm;943;51.568;6.998;2023-12-04T02:53:29;37.58;34.17;45.05;;
38366;Laerm;943;51.568;6.998;2023-12-04T02:55:59;39.08;35.41;45.55;;
38366;Laerm;943;51.568;6.998;2023-12-04T02:58:28;38.53;35.15;44.61;;
38366;Laerm;943;51.568;6.998;2023-12-04T03:00:58;39.41;35.12;50.70;;
38366;Laerm;943;51.568;6.998;2023-12-04T03:03:28;37.93;34.96;58.93;;
38366;Laerm;943;51.568;6.998;2023-12-04T03:05:59;37.09;34.49;42.74;;
38366;Laerm;943;51.568;6.998;2023-12-04T03:08:28;37.86;34.86;51.29;;
38366;Laerm;943;51.568;6.998;2023-12-04T03:10:58;39.23;35.53;49.82;;
38366;Laerm;943;51.568;6.998;2023-12-04T03:13:27;39.00;36.19;43.33;;
38366;Laerm;943;51.568;6.998;2023-12-04T03:15:58;38.56;35.41;42.77;;
38366;Laerm;943;51.568;6.998;2023-12-04T03:18:30;38.42;35.25;46.54;;
38366;Laerm;943;51.568;6.998;2023-12-04T03:21:00;39.56;35.03;49.56;;
38366;Laerm;943;51.568;6.998;2023-12-04T03:23:29;39.51;35.30;49.10;;
38366;Laerm;943;51.568;6.998;2023-12-04T03:25:59;40.18;37.07;48.10;;
38366;Laerm;943;51.568;6.998;2023-12-04T03:28:29;44.57;36.35;59.25;;
38366;Laerm;943;51.568;6.998;2023-12-04T03:30:59;39.57;36.71;43.74;;
38366;Laerm;943;51.568;6.998;2023-12-04T03:33:28;39.53;36.73;45.31;;
38366;Laerm;943;51.568;6.998;2023-12-04T03:36:02;40.10;36.81;46.92;;
38366;Laerm;943;51.568;6.998;2023-12-04T03:38:32;40.09;36.97;44.62;;
38366;Laerm;943;51.568;6.998;2023-12-04T03:41:03;39.55;37.15;43.97;;
38366;Laerm;943;51.568;6.998;2023-12-04T03:43:33;40.42;37.80;45.00;;
38366;Laerm;943;51.568;6.998;2023-12-04T03:46:03;40.50;37.20;45.44;;
38366;Laerm;943;51.568;6.998;2023-12-04T03:48:33;40.20;37.41;46.14;;
38366;Laerm;943;51.568;6.998;2023-12-04T03:51:04;40.51;37.65;44.62;;
38366;Laerm;943;51.568;6.998;2023-12-04T03:53:35;39.64;37.22;48.69;;
38366;Laerm;943;51.568;6.998;2023-12-04T03:56:06;41.05;38.04;48.55;;
38366;Laerm;943;51.568;6.998;2023-12-04T03:58:38;41.06;38.04;47.08;;
38366;Laerm;943;51.568;6.998;2023-12-04T04:01:08;41.31;38.46;46.30;;
38366;Laerm;943;51.568;6.998;2023-12-04T04:03:38;40.56;37.75;44.37;;
38366;Laerm;943;51.568;6.998;2023-12-04T04:06:09;41.53;38.14;46.14;;
38366;Laerm;943;51.568;6.998;2023-12-04T04:08:39;42.66;38.88;60.74;;
38366;Laerm;943;51.568;6.998;2023-12-04T04:11:09;40.91;38.31;44.64;;
38366;Laerm;943;51.568;6.998;2023-12-04T04:13:39;41.32;37.90;46.83;;
38366;Laerm;943;51.568;6.998;2023-12-04T04:16:16;40.92;37.58;47.12;;
38366;Laerm;943;51.568;6.998;2023-12-04T04:18:45;41.86;38.54;46.14;;
38366;Laerm;943;51.568;6.998;2023-12-04T04:21:15;41.82;38.91;46.19;;
38366;Laerm;943;51.568;6.998;2023-12-04T04:23:45;42.06;39.19;47.24;;
38366;Laerm;943;51.568;6.998;2023-12-04T04:26:14;42.17;39.17;46.76;;
38366;Laerm;943;51.568;6.998;2023-12-04T04:28:44;42.84;39.72;57.50;;
38366;Laerm;943;51.568;6.998;2023-12-04T04:31:14;42.20;38.99;48.71;;
38366;Laerm;943;51.568;6.998;2023-12-04T04:33:44;42.64;39.16;52.74;;
38366;Laerm;943;51.568;6.998;2023-12-04T04:36:14;43.75;39.39;60.22;;
38366;Laerm;943;51.568;6.998;2023-12-04T04:38:44;42.68;39.51;49.21;;
38366;Laerm;943;51.568;6.998;2023-12-04T04:41:18;42.37;39.49;48.60;;
38366;Laerm;943;51.568;6.998;2023-12-04T04:43:48;42.19;39.20;46.52;;
38366;Laerm;943;51.568;6.998;2023-12-04T04:46:17;43.19;39.92;47.78;;
38366;Laerm;943;51.568;6.998;2023-12-04T04:48:48;44.26;39.96;60.73;;
38366;Laerm;943;51.568;6.998;2023-12-04T04:51:17;49.30;40.85;61.03;;
38366;Laerm;943;51.568;6.998;2023-12-04T04:53:48;43.32;40.04;51.86;;
38366;Laerm;943;51.568;6.998;2023-12-04T04:56:18;43.32;39.82;51.43;;
38366;Laerm;943;51.568;6.998;2023-12-04T04:58:48;42.41;38.90;50.25;;
38366;Laerm;943;51.568;6.998;2023-12-04T05:01:21;43.06;39.79;47.45;;
38366;Laerm;943;51.568;6.998;2023-12-04T05:03:51;42.57;38.81;50.31;;
38366;Laerm;943;51.568;6.998;2023-12-04T05:06:24;42.97;39.81;51.05;;
38366;Laerm;943;51.568;6.998;2023-12-04T05:08:54;43.06;38.89;48.69;;
38366;Laerm;943;51.568;6.998;2023-12-04T05:11:24;42.86;40.13;46.46;;
38366;Laerm;943;51.568;6.998;2023-12-04T05:13:54;43.30;39.72;47.24;;
38366;Laerm;943;51.568;6.998;2023-12-04T05:16:24;44.02;40.50;51.71;;
38366;Laerm;943;51.568;6.998;2023-12-04T05:18:53;44.10;40.40;49.10;;
38366;Laerm;943;51.568;6.998;2023-12-04T05:21:23;43.26;39.88;50.63;;
38366;Laerm;943;51.568;6.998;2023-12-04T05:23:53;43.13;40.17;49.46;;
38366;Laerm;943;51.568;6.998;2023-12-04T05:26:23;43.01;38.93;47.24;;
38366;Laerm;943;51.568;6.998;2023-12-04T05:28:52;43.04;39.62;46.53;;
38366;Laerm;943;51.568;6.998;2023-12-04T05:31:23;42.89;40.02;47.35;;
38366;Laerm;943;51.568;6.998;2023-12-04T05:33:52;43.00;39.66;47.39;;
38366;Laerm;943;51.568;6.998;2023-12-04T05:36:22;42.92;40.05;47.04;;
38366;Laerm;943;51.568;6.998;2023-12-04T05:38:55;43.86;39.61;49.50;;
38366;Laerm;943;51.568;6.998;2023-12-04T05:41:28;45.24;41.12;54.22;;
38366;Laerm;943;51.568;6.998;2023-12-04T05:43:57;45.55;41.62;54.60;;
38366;Laerm;943;51.568;6.998;2023-12-04T05:46:28;44.33;41.29;51.74;;
38366;Laerm;943;51.568;6.998;2023-12-04T05:48:58;43.83;40.00;52.92;;
38366;Laerm;943;51.568;6.998;2023-12-04T05:51:27;43.71;40.71;49.00;;
38366;Laerm;943;51.568;6.998;2023-12-04T05:54:01;43.16;40.29;47.74;;
38366;Laerm;943;51.568;6.998;2023-12-04T05:56:31;43.72;40.09;51.38;;
38366;Laerm;943;51.568;6.998;2023-12-04T05:59:03;44.73;40.01;50.69;;
38366;Laerm;943;51.568;6.998;2023-12-04T06:01:34;46.39;41.96;54.85;;
38366;Laerm;943;51.568;6.998;2023-12-04T06:04:04;44.33;40.73;57.03;;
38366;Laerm;943;51.568;6.998;2023-12-04T06:06:34;43.21;40.11;50.10;;
38366;Laerm;943;51.568;6.998;2023-12-04T06:09:07;50.41;41.27;68.24;;
38366;Laerm;943;51.568;6.998;2023-12-04T06:11:37;44.76;40.85;66.25;;
38366;Laerm;943;51.568;6.998;2023-12-04T06:14:07;44.29;40.76;54.81;;
38366;Laerm;943;51.568;6.998;2023-12-04T06:16:38;44.12;40.96;62.83;;
38366;Laerm;943;51.568;6.998;2023-12-04T06:19:07;45.82;41.03;65.51;;
38366;Laerm;943;51.568;6.998;2023-12-04T06:21:37;49.18;42.12;72.97;;
38366;Laerm;943;51.568;6.998;2023-12-04T06:24:10;47.14;42.30;61.87;;
38366;Laerm;943;51.568;6.998;2023-12-04T06:26:44;50.16;44.13;70.36;;
38366;Laerm;943;51.568;6.998;2023-12-04T06:29:20;50.59;44.10;64.45;;
38366;Laerm;943;51.568;6.998;2023-12-04T06:31:50;50.99;42.67;64.86;;
38366;Laerm;943;51.568;6.998;2023-12-04T06:34:21;47.42;41.77;62.22;;
38366;Laerm;943;51.568;6.998;2023-12-04T06:36:52;45.93;42.07;52.57;;
38366;Laerm;943;51.568;6.998;2023-12-04T06:39:24;45.59;42.05;56.88;;
38366;Laerm;943;51.568;6.998;2023-12-04T06:41:56;45.53;41.08;61.07;;
38366;Laerm;943;51.568;6.998;2023-12-04T06:44:26;46.68;40.71;66.90;;
38366;Laerm;943;51.568;6.998;2023-12-04T06:47:02;45.61;41.78;60.42;;
38366;Laerm;943;51.568;6.998;2023-12-04T06:49:33;45.02;41.88;58.82;;
38366;Laerm;943;51.568;6.998;2023-12-04T06:52:04;45.95;41.48;58.58;;
38366;Laerm;943;51.568;6.998;2023-12-04T06:54:34;47.41;41.92;61.89;;
38366;Laerm;943;51.568;6.998;2023-12-04T06:57:04;46.24;41.50;58.80;;
38366;Laerm;943;51.568;6.998;2023-12-04T06:59:34;47.47;44.71;65.10;;
38366;Laerm;943;51.568;6.998;2023-12-04T07:02:06;47.77;44.05;69.42;;
38366;Laerm;943;51.568;6.998;2023-12-04T07:04:37;49.52;43.41;61.27;;
38366;Laerm;943;51.568;6.998;2023-12-04T07:07:07;48.60;42.52;65.13;;
38366;Laerm;943;51.568;6.998;2023-12-04T07:09:36;49.35;41.99;64.49;;
38366;Laerm;943;51.568;6.998;2023-12-04T07:12:07;44.99;41.69;51.62;;
38366;Laerm;943;51.568;6.998;2023-12-04T07:14:36;52.19;42.24;62.94;;
38366;Laerm;943;51.568;6.998;2023-12-04T07:17:06;65.46;48.81;81.35;;
38366;Laerm;943;51.568;6.998;2023-12-04T07:19:36;50.49;41.79;65.58;;
38366;Laerm;943;51.568;6.998;2023-12-04T07:22:05;63.63;42.15;79.01;;
38366;Laerm;943;51.568;6.998;2023-12-04T07:24:35;46.58;42.02;61.76;;
38366;Laerm;943;51.568;6.998;2023-12-04T07:27:06;46.52;42.29;63.08;;
38366;Laerm;943;51.568;6.998;2023-12-04T07:29:39;48.81;42.53;61.47;;
38366;Laerm;943;51.568;6.998;2023-12-04T07:32:09;46.36;42.29;61.70;;
38366;Laerm;943;51.568;6.998;2023-12-04T07:34:39;47.68;42.03;67.28;;
38366;Laerm;943;51.568;6.998;2023-12-04T07:37:09;45.28;41.84;57.68;;
38366;Laerm;943;51.568;6.998;2023-12-04T07:39:39;48.92;41.77;71.15;;
38366;Laerm;943;51.568;6.998;2023-12-04T07:42:10;45.90;43.21;55.11;;
38366;Laerm;943;51.568;6.998;2023-12-04T07:44:40;47.23;43.20;65.60;;
38366;Laerm;943;51.568;6.998;2023-12-04T07:47:10;46.44;42.23;59.83;;
38366;Laerm;943;51.568;6.998;2023-12-04T07:49:40;48.83;42.93;66.40;;
38366;Laerm;943;51.568;6.998;2023-12-04T07:52:12;55.24;42.86;71.59;;
38366;Laerm;943;51.568;6.998;2023-12-04T07:54:43;47.05;41.76;72.28;;
38366;Laerm;943;51.568;6.998;2023-12-04T07:57:13;50.81;43.11;66.69;;
38366;Laerm;943;51.568;6.998;2023-12-04T07:59:43;47.29;42.07;60.05;;
38366;Laerm;943;51.568;6.998;2023-12-04T08:02:14;47.66;41.22;59.68;;
38366;Laerm;943;51.568;6.998;2023-12-04T08:04:44;47.40;41.57;57.67;;
38366;Laerm;943;51.568;6.998;2023-12-04T08:07:15;45.41;41.82;63.84;;
38366;Laerm;943;51.568;6.998;2023-12-04T08:09:45;45.61;41.20;59.78;;
38366;Laerm;943;51.568;6.998;2023-12-04T08:12:15;48.10;42.34;65.19;;
38366;Laerm;943;51.568;6.998;2023-12-04T08:14:46;46.41;41.73;58.01;;
38366;Laerm;943;51.568;6.998;2023-12-04T08:17:16;46.76;41.09;55.45;;
38366;Laerm;943;51.568;6.998;2023-12-04T08:19:46;47.71;41.51;55.71;;
38366;Laerm;943;51.568;6.998;2023-12-04T08:22:20;46.61;40.76;55.34;;
38366;Laerm;943;51.568;6.998;2023-12-04T08:24:54;48.91;42.04;61.39;;
38366;Laerm;943;51.568;6.998;2023-12-04T08:27:24;47.27;41.74;62.86;;
38366;Laerm;943;51.568;6.998;2023-12-04T08:29:55;44.81;40.70;56.97;;
38366;Laerm;943;51.568;6.998;2023-12-04T08:32:27;45.17;41.34;58.76;;
38366;Laerm;943;51.568;6.998;2023-12-04T08:34:57;45.04;41.74;54.75;;
38366;Laerm;943;51.568;6.998;2023-12-04T08:37:27;45.48;41.85;58.43;;
38366;Laerm;943;51.568;6.998;2023-12-04T08:39:58;51.47;42.83;74.49;;
38366;Laerm;943;51.568;6.998;2023-12-04T08:42:27;47.29;42.29;56.24;;
38366;Laerm;943;51.568;6.998;2023-12-04T08:44:57;44.94;41.43;56.14;;
38366;Laerm;943;51.568;6.998;2023-12-04T08:47:27;49.32;41.70;74.38;;
38366;Laerm;943;51.568;6.998;2023-12-04T08:49:59;49.60;41.32;66.68;;
38366;Laerm;943;51.568;6.998;2023-12-04T08:52:30;45.60;42.01;57.83;;
38366;Laerm;943;51.568;6.998;2023-12-04T08:55:01;46.42;42.30;55.91;;
38366;Laerm;943;51.568;6.998;2023-12-04T08:57:32;47.51;41.32;59.02;;
38366;Laerm;943;51.568;6.998;2023-12-04T09:00:05;47.19;41.87;64.99;;
38366;Laerm;943;51.568;6.998;2023-12-04T09:02:34;48.53;41.75;62.55;;
38366;Laerm;943;51.568;6.998;2023-12-04T09:05:11;46.08;41.83;60.75;;
38366;Laerm;943;51.568;6.998;2023-12-04T09:07:42;49.26;42.00;77.37;;
38366;Laerm;943;51.568;6.998;2023-12-04T09:10:14;53.15;41.21;69.33;;
38366;Laerm;943;51.568;6.998;2023-12-04T09:13:04;45.79;40.73;60.81;;
38366;Laerm;943;51.568;6.998;2023-12-04T09:15:34;46.79;41.58;59.83;;
38366;Laerm;943;51.568;6.998;2023-12-04T09:18:04;45.74;41.46;54.46;;
38366;Laerm;943;51.568;6.998;2023-12-04T09:20:34;60.39;41.24;69.61;;
38366;Laerm;943;51.568;6.998;2023-12-04T09:23:04;57.26;41.86;70.11;;
38366;Laerm;943;51.568;6.998;2023-12-04T09:25:38;47.54;41.61;65.77;;
38366;Laerm;943;51.568;6.998;2023-12-04T09:28:08;48.71;42.49;60.16;;
38366;Laerm;943;51.568;6.998;2023-12-04T09:30:39;47.94;42.40;57.88;;
38366;Laerm;943;51.568;6.998;2023-12-04T09:33:09;58.09;42.44;71.74;;
38366;Laerm;943;51.568;6.998;2023-12-04T09:35:48;64.67;41.75;79.66;;
38366;Laerm;943;51.568;6.998;2023-12-04T09:38:18;50.69;42.42;64.82;;
38366;Laerm;943;51.568;6.998;2023-12-04T09:40:52;46.46;41.81;61.49;;
38366;Laerm;943;51.568;6.998;2023-12-04T09:43:22;47.69;41.58;67.01;;
38366;Laerm;943;51.568;6.998;2023-12-04T09:45:54;56.23;42.36;75.43;;
38366;Laerm;943;51.568;6.998;2023-12-04T09:48:27;66.18;39.28;79.02;;
38366;Laerm;943;51.568;6.998;2023-12-04T09:51:00;56.94;41.42;69.76;;
38366;Laerm;943;51.568;6.998;2023-12-04T09:53:33;61.55;40.75;71.88;;
38366;Laerm;943;51.568;6.998;2023-12-04T09:56:08;58.51;41.78;73.45;;
38366;Laerm;943;51.568;6.998;2023-12-04T09:58:41;54.82;41.82;70.34;;
38366;Laerm;943;51.568;6.998;2023-12-04T10:01:13;44.89;41.23;54.55;;
38366;Laerm;943;51.568;6.998;2023-12-04T10:03:46;47.07;41.40;60.89;;
38366;Laerm;943;51.568;6.998;2023-12-04T10:06:19;47.97;41.22;64.67;;
38366;Laerm;943;51.568;6.998;2023-12-04T10:08:49;47.29;41.98;59.52;;
38366;Laerm;943;51.568;6.998;2023-12-04T10:11:18;49.19;41.85;62.89;;
38366;Laerm;943;51.568;6.998;2023-12-04T10:13:48;47.02;41.13;63.83;;
38366;Laerm;943;51.568;6.998;2023-12-04T10:16:36;62.93;41.73;75.75;;
38366;Laerm;943;51.568;6.998;2023-12-04T10:19:31;57.77;41.54;71.93;;
38366;Laerm;943;51.568;6.998;2023-12-04T10:22:02;58.44;42.82;70.61;;
38366;Laerm;943;51.568;6.998;2023-12-04T10:24:38;52.19;49.23;66.20;;
38366;Laerm;943;51.568;6.998;2023-12-04T10:27:13;58.78;49.04;73.92;;
38366;Laerm;943;51.568;6.998;2023-12-04T10:29:54;57.79;43.35;76.41;;
38366;Laerm;943;51.568;6.998;2023-12-04T10:32:28;55.54;43.59;76.49;;
38366;Laerm;943;51.568;6.998;2023-12-04T10:35:00;48.16;40.69;78.22;;
38366;Laerm;943;51.568;6.998;2023-12-04T10:37:31;45.79;39.07;64.97;;
38366;Laerm;943;51.568;6.998;2023-12-04T10:40:01;46.86;40.33;65.32;;
38366;Laerm;943;51.568;6.998;2023-12-04T10:42:31;45.99;40.88;64.40;;
38366;Laerm;943;51.568;6.998;2023-12-04T10:45:02;44.57;39.94;64.38;;
38366;Laerm;943;51.568;6.998;2023-12-04T10:47:37;45.24;40.07;62.03;;
38366;Laerm;943;51.568;6.998;2023-12-04T10:50:13;45.35;40.13;60.15;;
38366;Laerm;943;51.568;6.998;2023-12-04T10:52:47;44.03;40.12;52.77;;
38366;Laerm;943;51.568;6.998;2023-12-04T10:55:18;44.78;40.84;54.93;;
38366;Laerm;943;51.568;6.998;2023-12-04T10:57:54;45.64;41.25;60.70;;
38366;Laerm;943;51.568;6.998;2023-12-04T11:00:28;46.37;40.18;60.68;;
38366;Laerm;943;51.568;6.998;2023-12-04T11:03:12;48.38;40.43;64.04;;
38366;Laerm;943;51.568;6.998;2023-12-04T11:05:49;46.92;39.93;70.50;;
38366;Laerm;943;51.568;6.998;2023-12-04T11:08:25;44.84;40.92;58.00;;
38366;Laerm;943;51.568;6.998;2023-12-04T11:11:15;44.74;39.72;55.51;;
38366;Laerm;943;51.568;6.998;2023-12-04T11:13:58;44.10;40.71;50.40;;
38366;Laerm;943;51.568;6.998;2023-12-04T11:17:07;46.24;40.38;61.18;;
38366;Laerm;943;51.568;6.998;2023-12-04T11:20:01;44.44;40.32;59.75;;
38366;Laerm;943;51.568;6.998;2023-12-04T11:22:42;45.21;41.27;59.12;;
38366;Laerm;943;51.568;6.998;2023-12-04T11:25:16;46.78;40.29;55.48;;
38366;Laerm;943;51.568;6.998;2023-12-04T11:27:46;49.35;41.25;64.67;;
38366;Laerm;943;51.568;6.998;2023-12-04T11:30:18;48.11;39.95;65.35;;
38366;Laerm;943;51.568;6.998;2023-12-04T11:32:56;43.10;39.62;58.28;;
38366;Laerm;943;51.568;6.998;2023-12-04T11:35:27;45.07;40.36;57.43;;
38366;Laerm;943;51.568;6.998;2023-12-04T11:38:00;44.41;40.65;57.58;;
38366;Laerm;943;51.568;6.998;2023-12-04T11:40:30;44.57;40.66;58.67;;
38366;Laerm;943;51.568;6.998;2023-12-04T11:42:59;44.57;40.93;52.29;;
38366;Laerm;943;51.568;6.998;2023-12-04T11:45:39;61.71;40.45;76.49;;
38366;Laerm;943;51.568;6.998;2023-12-04T11:48:10;50.85;41.65;63.02;;
38366;Laerm;943;51.568;6.998;2023-12-04T11:50:44;44.95;40.46;58.97;;
38366;Laerm;943;51.568;6.998;2023-12-04T11:53:18;45.28;41.20;60.25;;
38366;Laerm;943;51.568;6.998;2023-12-04T11:55:57;51.68;40.93;70.21;;
38366;Laerm;943;51.568;6.998;2023-12-04T11:58:29;50.81;41.62;69.50;;
38366;Laerm;943;51.568;6.998;2023-12-04T12:01:01;45.09;40.66;61.22;;
38366;Laerm;943;51.568;6.998;2023-12-04T12:03:40;45.94;40.66;61.40;;
38366;Laerm;943;51.568;6.998;2023-12-04T12:06:10;58.26;42.41;70.99;;
38366;Laerm;943;51.568;6.998;2023-12-04T12:08:44;46.81;42.54;61.78;;
38366;Laerm;943;51.568;6.998;2023-12-04T12:11:18;45.37;41.88;62.31;;
38366;Laerm;943;51.568;6.998;2023-12-04T12:13:48;45.91;42.55;61.09;;
38366;Laerm;943;51.568;6.998;2023-12-04T12:16:20;46.28;42.44;59.66;;
38366;Laerm;943;51.568;6.998;2023-12-04T12:18:51;46.37;41.88;63.99;;
38366;Laerm;943;51.568;6.998;2023-12-04T12:21:21;46.57;42.53;67.05;;
38366;Laerm;943;51.568;6.998;2023-12-04T12:23:50;45.74;42.04;55.45;;
38366;Laerm;943;51.568;6.998;2023-12-04T12:26:20;47.64;42.23;60.79;;
38366;Laerm;943;51.568;6.998;2023-12-04T12:28:52;46.55;43.38;61.52;;
38366;Laerm;943;51.568;6.998;2023-12-04T12:31:22;47.34;42.16;66.24;;
38366;Laerm;943;51.568;6.998;2023-12-04T12:33:55;51.83;42.19;67.60;;
38366;Laerm;943;51.568;6.998;2023-12-04T12:36:27;46.20;42.82;58.75;;
38366;Laerm;943;51.568;6.998;2023-12-04T12:38:57;45.92;42.82;61.56;;
38366;Laerm;943;51.568;6.998;2023-12-04T12:41:28;50.07;40.94;77.18;;
38366;Laerm;943;51.568;6.998;2023-12-04T12:44:00;45.55;41.11;67.12;;
38366;Laerm;943;51.568;6.998;2023-12-04T12:46:31;48.96;41.68;73.04;;
38366;Laerm;943;51.568;6.998;2023-12-04T12:49:01;51.82;41.85;73.36;;
38366;Laerm;943;51.568;6.998;2023-12-04T12:51:33;57.24;42.66;77.65;;
38366;Laerm;943;51.568;6.998;2023-12-04T12:54:03;49.97;42.45;69.59;;
38366;Laerm;943;51.568;6.998;2023-12-04T12:56:33;47.48;43.42;60.85;;
38366;Laerm;943;51.568;6.998;2023-12-04T12:59:03;47.02;42.70;65.90;;
38366;Laerm;943;51.568;6.998;2023-12-04T13:01:35;45.84;41.51;62.30;;
38366;Laerm;943;51.568;6.998;2023-12-04T13:04:05;48.40;41.91;58.76;;
38366;Laerm;943;51.568;6.998;2023-12-04T13:06:36;50.70;43.23;59.22;;
38366;Laerm;943;51.568;6.998;2023-12-04T13:09:08;47.72;43.06;70.61;;
38366;Laerm;943;51.568;6.998;2023-12-04T13:11:39;45.58;42.21;56.64;;
38366;Laerm;943;51.568;6.998;2023-12-04T13:14:09;47.57;42.79;62.69;;
38366;Laerm;943;51.568;6.998;2023-12-04T13:16:38;47.15;42.79;60.86;;
38366;Laerm;943;51.568;6.998;2023-12-04T13:19:09;46.58;42.74;56.84;;
38366;Laerm;943;51.568;6.998;2023-12-04T13:21:38;48.52;43.73;64.58;;
38366;Laerm;943;51.568;6.998;2023-12-04T13:24:11;47.99;44.08;62.58;;
38366;Laerm;943;51.568;6.998;2023-12-04T13:26:41;46.45;43.44;58.07;;
38366;Laerm;943;51.568;6.998;2023-12-04T13:29:19;47.81;44.22;62.63;;
38366;Laerm;943;51.568;6.998;2023-12-04T13:31:51;48.58;44.89;63.49;;
38366;Laerm;943;51.568;6.998;2023-12-04T13:34:23;48.96;43.35;60.77;;
38366;Laerm;943;51.568;6.998;2023-12-04T13:36:53;49.27;43.35;61.34;;
38366;Laerm;943;51.568;6.998;2023-12-04T13:39:48;47.30;43.01;60.51;;
38366;Laerm;943;51.568;6.998;2023-12-04T13:43:34;47.24;43.55;62.48;;
38366;Laerm;943;51.568;6.998;2023-12-04T13:46:24;50.69;43.50;78.45;;
38366;Laerm;943;51.568;6.998;2023-12-04T13:48:53;50.35;43.89;65.08;;
38366;Laerm;943;51.568;6.998;2023-12-04T13:51:24;48.37;43.23;62.55;;
38366;Laerm;943;51.568;6.998;2023-12-04T13:54:25;46.19;42.56;68.49;;
38366;Laerm;943;51.568;6.998;2023-12-04T13:57:43;46.14;42.31;59.27;;
38366;Laerm;943;51.568;6.998;2023-12-04T14:00:25;46.84;42.14;59.99;;
38366;Laerm;943;51.568;6.998;2023-12-04T14:03:07;46.75;43.49;59.16;;
38366;Laerm;943;51.568;6.998;2023-12-04T14:05:37;46.21;42.95;56.65;;
38366;Laerm;943;51.568;6.998;2023-12-04T14:08:07;46.47;43.32;54.58;;
38366;Laerm;943;51.568;6.998;2023-12-04T14:10:38;55.86;44.61;73.34;;
38366;Laerm;943;51.568;6.998;2023-12-04T14:13:09;50.29;42.49;66.74;;
38366;Laerm;943;51.568;6.998;2023-12-04T14:15:40;47.54;43.03;63.05;;
38366;Laerm;943;51.568;6.998;2023-12-04T14:18:10;47.62;41.91;59.56;;
38366;Laerm;943;51.568;6.998;2023-12-04T14:20:40;44.28;41.44;49.41;;
38366;Laerm;943;51.568;6.998;2023-12-04T14:23:10;45.69;40.96;55.01;;
38366;Laerm;943;51.568;6.998;2023-12-04T14:25:40;45.39;41.91;63.11;;
38366;Laerm;943;51.568;6.998;2023-12-04T14:28:09;44.80;41.41;50.06;;
38366;Laerm;943;51.568;6.998;2023-12-04T14:30:41;45.66;42.05;58.35;;
38366;Laerm;943;51.568;6.998;2023-12-04T14:33:11;45.82;41.56;59.07;;
38366;Laerm;943;51.568;6.998;2023-12-04T14:35:44;45.29;41.92;59.99;;